Time;durP1;ratioP1;P1;durP2;ratioP2;P2;SDS_P1;SDS_P2;PMS_P1;PMS_P2;Temp;Humidity;BMP_temperature;BMP_pressure;BME280_temperature;BME280_humidity;BME280_pressure;Samples;Min_cycle;Max_cycle;Signal;HPM_P1;HPM_P2
2024/02/13 00:04:54;;;;;;;;;;;5.40;99.90;;;;;;6730873;88;20081;-78
2024/02/13 00:14:55;;;;;;;;;;;5.20;99.90;;;;;;6734686;88;20112;-77
2024/02/13 00:24:56;;;;;;;;;;;5.00;99.90;;;;;;6724026;88;20560;-77
2024/02/13 00:34:57;;;;;;;;;;;5.00;99.90;;;;;;6714304;88;20080;-77
2024/02/13 00:45:00;;;;;;;;;;;4.90;99.90;;;;;;6724267;88;20878;-78
2024/02/13 00:55:01;;;;;;;;;;;4.90;99.90;;;;;;6727498;88;20048;-78
2024/02/13 01:05:01;;;;;;;;;;;4.90;99.90;;;;;;6712073;88;20084;-78
2024/02/13 01:15:02;;;;;;;;;;;4.80;99.90;;;;;;6712998;88;20090;-78
2024/02/13 01:25:05;;;;;;;;;;;4.50;99.90;;;;;;6720044;88;20101;-78
2024/02/13 01:35:05;;;;;;;;;;;4.20;99.90;;;;;;6727548;88;20058;-78
2024/02/13 01:45:07;;;;;;;;;;;4.40;99.90;;;;;;6722257;88;20101;-78
2024/02/13 01:55:08;;;;;;;;;;;4.50;99.90;;;;;;6729380;88;20225;-77
2024/02/13 02:05:13;;;;;;;;;;;4.40;99.90;;;;;;6729695;88;20063;-78
2024/02/13 02:15:14;;;;;;;;;;;4.50;99.90;;;;;;6731514;88;20076;-77
2024/02/13 02:35:18;;;;;;;;;;;4.60;99.90;;;;;;6684651;87;20056;-79
2024/02/13 02:45:18;;;;;;;;;;;4.60;99.90;;;;;;6675435;88;20098;-79
2024/02/13 02:55:21;;;;;;;;;;;4.60;99.90;;;;;;6674565;88;20058;-78
2024/02/13 03:05:21;;;;;;;;;;;4.70;99.90;;;;;;6684340;88;20166;-78
2024/02/13 03:15:22;;;;;;;;;;;4.80;99.90;;;;;;6670107;88;20543;-79
2024/02/13 03:25:23;;;;;;;;;;;4.80;99.90;;;;;;6672660;88;20054;-78
2024/02/13 03:35:24;;;;;;;;;;;4.80;99.90;;;;;;6690797;88;20144;-79
2024/02/13 03:45:24;;;;;;;;;;;4.70;99.90;;;;;;6674928;87;20079;-78
2024/02/13 03:55:25;;;;;;;;;;;4.50;99.90;;;;;;6663434;88;20082;-78
2024/02/13 04:05:26;;;;;;;;;;;4.50;99.90;;;;;;6668604;88;20195;-77
2024/02/13 04:15:26;;;;;;;;;;;4.40;99.90;;;;;;6664619;88;20079;-77
2024/02/13 04:25:26;;;;;;;;;;;4.30;99.90;;;;;;6679347;88;20046;-77
2024/02/13 04:35:27;;;;;;;;;;;4.20;99.90;;;;;;6666151;88;20069;-76
2024/02/13 04:45:27;;;;;;;;;;;3.90;99.90;;;;;;6679489;88;20176;-77
2024/02/13 04:55:28;;;;;;;;;;;3.70;99.90;;;;;;6675422;88;20584;-77
2024/02/13 05:15:50;;;;;;;;;;;3.20;99.90;;;;;;6677357;88;20496;-77
2024/02/13 05:25:51;;;;;;;;;;;3.40;99.90;;;;;;6673827;88;20098;-77
2024/02/13 05:35:54;;;;;;;;;;;3.60;99.90;;;;;;6699651;88;20166;-77
2024/02/13 05:45:56;;;;;;;;;;;3.60;99.90;;;;;;6688681;88;20083;-77
2024/02/13 05:55:57;;;;;;;;;;;3.70;99.90;;;;;;6739627;88;20157;-78
2024/02/13 06:05:58;;;;;;;;;;;3.80;99.90;;;;;;6741553;88;20197;-79
2024/02/13 06:15:59;;;;;;;;;;;3.70;99.90;;;;;;6741314;88;20070;-76
2024/02/13 06:25:59;;;;;;;;;;;3.50;99.90;;;;;;6739732;88;20082;-78
2024/02/13 06:36:00;;;;;;;;;;;3.50;99.90;;;;;;6739694;88;20071;-77
2024/02/13 06:46:01;;;;;;;;;;;3.30;99.90;;;;;;6726624;88;20052;-78
2024/02/13 06:56:01;;;;;;;;;;;3.10;99.90;;;;;;6671588;88;20061;-77
2024/02/13 07:06:02;;;;;;;;;;;2.90;99.90;;;;;;6668787;88;20062;-77
2024/02/13 07:16:06;;;;;;;;;;;2.80;99.90;;;;;;6665440;89;20702;-78
2024/02/13 07:26:11;;;;;;;;;;;2.90;99.90;;;;;;6664711;88;20590;-77
2024/02/13 07:36:11;;;;;;;;;;;2.70;99.90;;;;;;6671706;88;20073;-77
2024/02/13 07:46:12;;;;;;;;;;;2.90;99.90;;;;;;6678146;88;20140;-77
2024/02/13 07:56:12;;;;;;;;;;;3.10;99.90;;;;;;6673031;88;20070;-78
2024/02/13 08:06:13;;;;;;;;;;;3.30;99.90;;;;;;6670600;88;20080;-78
2024/02/13 08:16:14;;;;;;;;;;;3.80;99.90;;;;;;6683404;88;20140;-77
2024/02/13 08:26:14;;;;;;;;;;;4.20;99.90;;;;;;6670567;88;20484;-78
2024/02/13 08:36:15;;;;;;;;;;;4.70;99.90;;;;;;6663250;88;20060;-77
2024/02/13 08:46:19;;;;;;;;;;;5.40;99.90;;;;;;6664960;88;20152;-78
2024/02/13 08:56:19;;;;;;;;;;;5.80;99.90;;;;;;6667105;89;20065;-77
2024/02/13 09:06:20;;;;;;;;;;;5.70;99.90;;;;;;6668367;89;20084;-77
2024/02/13 09:16:21;;;;;;;;;;;6.30;99.90;;;;;;6668850;88;20064;-77
2024/02/13 09:26:23;;;;;;;;;;;6.80;99.90;;;;;;6669910;88;20189;-81
2024/02/13 09:36:23;;;;;;;;;;;7.00;99.90;;;;;;6653995;89;20070;-79
2024/02/13 09:46:24;;;;;;;;;;;8.80;99.90;;;;;;6665318;88;20501;-78
2024/02/13 09:56:25;;;;;;;;;;;9.30;99.90;;;;;;6652474;89;20200;-78
2024/02/13 10:06:27;;;;;;;;;;;9.00;99.90;;;;;;6651801;88;20057;-78
2024/02/13 10:16:27;;;;;;;;;;;9.70;99.90;;;;;;6650961;89;20072;-79
2024/02/13 10:26:28;;;;;;;;;;;11.30;99.90;;;;;;6653573;88;20064;-79
2024/02/13 10:36:29;;;;;;;;;;;10.70;99.90;;;;;;6651574;88;20203;-78
2024/02/13 10:46:31;;;;;;;;;;;11.90;99.90;;;;;;6651263;89;20519;-78
2024/02/13 10:56:36;;;;;;;;;;;12.30;99.90;;;;;;6651730;89;20066;-79
2024/02/13 11:06:37;;;;;;;;;;;12.80;99.90;;;;;;6651320;89;20056;-79
2024/02/13 11:16:37;;;;;;;;;;;12.20;99.90;;;;;;6650850;89;20049;-79
2024/02/13 11:26:38;;;;;;;;;;;13.20;99.90;;;;;;6652472;88;20535;-78
2024/02/13 11:36:38;;;;;;;;;;;13.80;99.90;;;;;;6652948;88;20498;-79
2024/02/13 11:46:53;;;;;;;;;;;13.60;99.90;;;;;;6649153;89;20088;-79
2024/02/13 11:56:54;;;;;;;;;;;13.80;99.90;;;;;;6648196;89;20534;-79
2024/02/13 12:06:56;;;;;;;;;;;12.20;99.90;;;;;;6651238;89;20068;-79
2024/02/13 12:17:08;;;;;;;;;;;12.30;99.90;;;;;;6652355;89;20053;-79
2024/02/13 12:27:12;;;;;;;;;;;11.20;99.90;;;;;;6652034;88;20252;-79
2024/02/13 12:37:16;;;;;;;;;;;12.80;99.90;;;;;;6654746;89;20056;-79
2024/02/13 12:47:17;;;;;;;;;;;13.10;99.90;;;;;;6649647;89;20065;-78
2024/02/13 12:57:18;;;;;;;;;;;12.40;99.90;;;;;;6654489;88;20464;-79
2024/02/13 13:07:19;;;;;;;;;;;11.50;99.90;;;;;;6654373;89;20184;-78
2024/02/13 13:17:21;;;;;;;;;;;11.40;99.90;;;;;;6651826;89;20046;-79
2024/02/13 13:27:23;;;;;;;;;;;11.20;99.90;;;;;;6652000;88;20488;-79
2024/02/13 13:37:25;;;;;;;;;;;11.10;99.90;;;;;;6651536;89;20056;-78
2024/02/13 13:47:25;;;;;;;;;;;11.10;99.90;;;;;;6651181;89;20472;-78
2024/02/13 13:57:26;;;;;;;;;;;10.90;99.90;;;;;;6650425;88;20069;-78
2024/02/13 14:07:26;;;;;;;;;;;11.00;99.90;;;;;;6653239;88;20082;-76
2024/02/13 14:17:28;;;;;;;;;;;10.20;99.90;;;;;;6656269;88;20050;-77
2024/02/13 14:27:29;;;;;;;;;;;10.20;99.90;;;;;;6684290;78;20260;-76
2024/02/13 14:37:30;;;;;;;;;;;10.40;99.90;;;;;;6723510;88;20063;-75
2024/02/13 14:47:31;;;;;;;;;;;10.50;99.90;;;;;;6725330;88;20132;-77
2024/02/13 14:57:32;;;;;;;;;;;10.20;99.90;;;;;;6726097;88;20224;-76
2024/02/13 15:07:34;;;;;;;;;;;10.00;99.90;;;;;;6729681;88;20490;-76
2024/02/13 15:17:35;;;;;;;;;;;10.00;99.90;;;;;;6727603;88;20059;-78
2024/02/13 15:27:39;;;;;;;;;;;10.10;99.90;;;;;;6726338;88;20570;-76
2024/02/13 15:47:59;;;;;;;;;;;9.80;99.90;;;;;;6727380;88;20626;-75
2024/02/13 15:57:59;;;;;;;;;;;9.50;99.90;;;;;;6731444;88;20180;-75
2024/02/13 16:08:00;;;;;;;;;;;9.40;99.90;;;;;;6724665;88;20093;-75
2024/02/13 16:18:00;;;;;;;;;;;9.20;99.90;;;;;;6729750;88;20141;-76
2024/02/13 16:28:03;;;;;;;;;;;9.10;99.90;;;;;;6740013;87;20071;-75
2024/02/13 16:38:04;;;;;;;;;;;9.00;99.90;;;;;;6732480;88;20842;-75
2024/02/13 16:48:04;;;;;;;;;;;8.90;99.90;;;;;;6726923;88;20047;-76
2024/02/13 16:58:06;;;;;;;;;;;8.90;99.90;;;;;;6734235;88;20077;-74
2024/02/13 17:08:06;;;;;;;;;;;8.70;99.90;;;;;;6732165;88;20174;-74
2024/02/13 17:18:07;;;;;;;;;;;8.70;99.90;;;;;;6732999;88;20573;-76
2024/02/13 17:28:10;;;;;;;;;;;8.60;99.90;;;;;;6730981;88;20137;-76
2024/02/13 17:38:12;;;;;;;;;;;8.60;99.90;;;;;;6737907;88;21063;-77
2024/02/13 17:48:12;;;;;;;;;;;8.60;99.90;;;;;;6744335;88;20628;-77
2024/02/13 17:58:13;;;;;;;;;;;8.50;99.90;;;;;;6743886;88;20085;-75
2024/02/13 18:08:14;;;;;;;;;;;8.50;99.90;;;;;;6734254;88;20047;-75
2024/02/13 18:18:14;;;;;;;;;;;8.50;99.90;;;;;;6732935;88;20485;-77
2024/02/13 18:28:16;;;;;;;;;;;8.50;99.90;;;;;;6734831;88;20063;-76
2024/02/13 18:38:17;;;;;;;;;;;8.40;99.90;;;;;;6728865;88;20278;-76
2024/02/13 18:48:18;;;;;;;;;;;8.40;99.90;;;;;;6729001;88;20059;-76
2024/02/13 18:58:18;;;;;;;;;;;8.40;99.90;;;;;;6728627;88;20070;-77
2024/02/13 19:08:19;;;;;;;;;;;8.10;99.90;;;;;;6731960;88;20047;-78
2024/02/13 19:18:20;;;;;;;;;;;8.10;99.90;;;;;;6733698;88;20100;-77
2024/02/13 19:28:20;;;;;;;;;;;8.10;99.90;;;;;;6735500;88;20562;-76
2024/02/13 19:38:21;;;;;;;;;;;8.00;99.90;;;;;;6727265;88;20045;-77
2024/02/13 19:48:21;;;;;;;;;;;8.00;99.90;;;;;;6734929;88;20054;-80
2024/02/13 19:58:23;;;;;;;;;;;8.00;99.90;;;;;;6738194;88;20051;-77
2024/02/13 20:08:24;;;;;;;;;;;8.00;99.90;;;;;;6733188;88;20504;-78
2024/02/13 20:18:25;;;;;;;;;;;8.00;99.90;;;;;;6732972;88;20510;-77
2024/02/13 20:38:32;;;;;;;;;;;7.90;99.90;;;;;;6637759;88;20101;-79
2024/02/13 20:48:32;;;;;;;;;;;8.00;99.90;;;;;;6641661;89;20174;-78
2024/02/13 20:58:33;;;;;;;;;;;7.90;99.90;;;;;;6649810;88;20063;-78
2024/02/13 21:08:33;;;;;;;;;;;8.00;99.90;;;;;;6632106;88;20071;-77
2024/02/13 21:18:34;;;;;;;;;;;8.00;99.90;;;;;;6628459;89;20073;-77
2024/02/13 21:28:35;;;;;;;;;;;8.00;99.90;;;;;;6637793;88;20493;-78
2024/02/13 21:38:35;;;;;;;;;;;7.90;99.90;;;;;;6715013;88;20072;-78
2024/02/13 21:48:36;;;;;;;;;;;7.90;99.90;;;;;;6719350;88;20499;-78
2024/02/13 21:58:36;;;;;;;;;;;7.90;99.90;;;;;;6719676;88;20062;-77
2024/02/13 22:08:37;;;;;;;;;;;7.90;99.90;;;;;;6724224;88;20608;-78
2024/02/13 22:18:38;;;;;;;;;;;8.00;99.90;;;;;;6724025;88;20072;-78
2024/02/13 22:28:39;;;;;;;;;;;8.00;99.90;;;;;;6724531;88;20250;-78
2024/02/13 22:38:39;;;;;;;;;;;8.10;99.90;;;;;;6724900;88;20149;-77
2024/02/13 22:48:40;;;;;;;;;;;8.20;99.90;;;;;;6723613;88;20706;-77
2024/02/13 22:58:40;;;;;;;;;;;8.30;99.90;;;;;;6723203;88;20154;-77
2024/02/13 23:08:41;;;;;;;;;;;8.50;99.90;;;;;;6725825;88;20054;-77
2024/02/13 23:18:42;;;;;;;;;;;8.80;99.90;;;;;;6721399;88;20082;-77
2024/02/13 23:28:43;;;;;;;;;;;8.80;99.90;;;;;;6714905;88;20166;-77
2024/02/13 23:38:45;;;;;;;;;;;9.10;99.90;;;;;;6717403;88;20449;-77
2024/02/13 23:48:45;;;;;;;;;;;9.10;99.90;;;;;;6712452;88;20648;-77
2024/02/13 23:58:46;;;;;;;;;;;9.20;99.90;;;;;;6709230;88;20178;-77
